logo
Search for airport 
image banner adimage banner adimage banner ad
image banner ad

CLH3 - Long Harbour

Located in , Canada

ICAO - , IATA -

Data provided by Airmate  

General information

Coordinates: N48°51'29" W123°28'29"
Elevation is 50 feet MSL.
Magnetic variation is 16.45° East
View others Airports in British Columbia

Operational data

Special qualification required
Current time UTC:
Current local time:
Weather at : CYYJ - Victoria Intl ( 24 km )
METAR: CYYJ 231700Z VRB07KT 30SM FEW030 FEW053 18/09 A3019 RMK CU1SC1 CU TR SC TR FU W SLP225
TAF: TAF CYYJ 231740Z 2318/2418 09008KT P6SM SCT050 FM232100 11008KT P6SM FEW200 BECMG 2405/2407 26007KT FM241300 26005KT P6SM SCT050 BECMG 2416/2418 10008KT RMK NXT FCST BY 240000Z
View NOTAMs / SUP AIP / TFR affecting this airport [VIEW]
Communications frequencies: [VIEW]

Runways:

RWY identifierQFULength (ft)Width (ft)SurfaceLDA (ft)
10117°157350GRASS1573
28297°157350GRASS1573

Airport contact information

Address: Canada

Satellite view of CLH3